createdAt,value
2022-11-03T00:02:21.474Z,5.70
2022-11-03T00:05:36.457Z,4.43
2022-11-03T00:08:42.017Z,3.67
2022-11-03T00:11:58.366Z,5.50
2022-11-03T00:15:00.105Z,5.43
2022-11-03T00:18:14.381Z,5.12
2022-11-03T00:21:16.177Z,5.05
2022-11-03T00:24:31.372Z,4.23
2022-11-03T00:27:46.370Z,4.57
2022-11-03T00:31:01.387Z,4.80
2022-11-03T00:34:11.380Z,5.12
2022-11-03T00:37:26.425Z,4.87
2022-11-03T00:40:28.182Z,5.40
2022-11-03T00:43:43.457Z,4.97
2022-11-03T00:46:58.692Z,5.32
2022-11-03T00:50:07.434Z,5.05
2022-11-03T00:53:15.990Z,5.57
2022-11-03T00:56:26.418Z,5.17
2022-11-03T00:59:41.395Z,5.10
2022-11-03T01:02:43.157Z,5.57
2022-11-03T01:05:57.444Z,5.90
2022-11-03T01:09:05.417Z,6.22
2022-11-03T01:12:17.280Z,5.60
2022-11-03T01:15:25.430Z,5.37
2022-11-03T01:18:40.430Z,5.15
2022-11-03T01:21:55.437Z,5.10
2022-11-03T01:25:04.160Z,5.22
2022-11-03T01:28:12.446Z,4.80
2022-11-03T01:31:30.463Z,4.90
2022-11-03T01:34:32.350Z,4.43
2022-11-03T01:37:47.499Z,5.03
2022-11-03T01:40:49.225Z,5.22
2022-11-03T01:44:31.481Z,4.80
2022-11-03T01:47:47.181Z,4.50
2022-11-03T01:51:02.429Z,5.00
2022-11-03T01:54:08.798Z,3.95
2022-11-03T01:57:31.447Z,3.97
2022-11-03T02:00:34.940Z,3.27
2022-11-03T02:03:57.447Z,2.70
2022-11-03T02:07:22.865Z,2.92
2022-11-03T02:10:31.489Z,2.92
2022-11-03T02:13:46.459Z,3.78
2022-11-03T02:17:05.484Z,2.60
2022-11-03T02:20:27.524Z,2.83
2022-11-03T02:23:51.457Z,3.28
2022-11-03T02:27:00.306Z,3.12
2022-11-03T02:30:08.436Z,3.30
2022-11-03T02:33:31.171Z,3.10
2022-11-03T02:36:47.466Z,3.10
2022-11-03T02:40:10.453Z,3.42
2022-11-03T02:43:15.088Z,3.30
2022-11-03T02:46:32.483Z,3.15
2022-11-03T02:49:46.846Z,4.23
2022-11-03T02:53:01.497Z,3.62
2022-11-03T02:56:11.034Z,3.20
2022-11-03T02:59:33.479Z,3.25
2022-11-03T03:02:44.837Z,3.35
2022-11-03T03:06:06.457Z,3.67
2022-11-03T03:09:18.516Z,2.90
2022-11-03T03:12:34.553Z,3.00
2022-11-03T03:15:57.486Z,3.40
2022-11-03T03:19:13.347Z,2.87
2022-11-03T03:22:38.506Z,3.60
2022-11-03T03:25:58.658Z,3.65
2022-11-03T03:29:15.477Z,4.07
2022-11-03T03:32:26.866Z,4.60
2022-11-03T03:35:37.499Z,4.68
2022-11-03T03:39:00.517Z,4.37
2022-11-03T03:42:03.827Z,4.30
2022-11-03T03:45:19.567Z,4.65
2022-11-03T03:48:27.921Z,4.62
2022-11-03T03:51:44.520Z,4.75
2022-11-03T03:54:46.254Z,4.73
2022-11-03T03:58:00.674Z,4.90
2022-11-03T04:01:18.593Z,4.55
2022-11-03T04:04:20.758Z,5.10
2022-11-03T04:07:40.741Z,4.60
2022-11-03T04:10:52.497Z,4.50
2022-11-03T04:14:01.053Z,4.50
2022-11-03T04:17:09.572Z,4.87
2022-11-03T04:20:18.393Z,4.60
2022-11-03T04:23:33.523Z,4.90
2022-11-03T04:26:42.122Z,4.43
2022-11-03T04:29:50.524Z,4.82
2022-11-03T04:33:05.536Z,5.07
2022-11-03T04:36:23.060Z,5.12
2022-11-03T04:39:37.601Z,4.62
2022-11-03T04:42:46.492Z,4.53
2022-11-03T04:46:01.661Z,4.95
2022-11-03T04:49:22.202Z,4.78
2022-11-03T04:52:30.529Z,4.72
2022-11-03T04:55:47.524Z,4.40
2022-11-03T04:58:49.331Z,4.93
2022-11-03T05:02:05.681Z,4.95
2022-11-03T05:05:19.675Z,4.68
2022-11-03T05:08:34.586Z,4.50
2022-11-03T05:11:42.311Z,5.72
2022-11-03T05:14:58.812Z,17.67
2022-11-03T05:18:04.087Z,5.07
2022-11-03T05:21:24.565Z,4.80
2022-11-03T05:24:33.573Z,4.07
2022-11-03T05:27:42.081Z,5.37
2022-11-03T05:30:50.552Z,5.27
2022-11-03T05:34:10.541Z,5.00
2022-11-03T05:37:33.559Z,5.25
2022-11-03T05:40:43.059Z,5.15
2022-11-03T05:43:51.553Z,4.90
2022-11-03T05:47:08.554Z,4.97
2022-11-03T05:50:27.626Z,5.12
2022-11-03T05:53:39.502Z,5.28
2022-11-03T05:56:47.561Z,5.40
2022-11-03T06:00:02.534Z,5.35
2022-11-03T06:03:06.377Z,6.20
2022-11-03T06:06:32.388Z,5.53
2022-11-03T06:09:34.599Z,5.87
2022-11-03T06:12:49.535Z,5.47
2022-11-03T06:16:03.531Z,5.30
2022-11-03T06:19:34.575Z,5.43
2022-11-03T06:22:43.305Z,4.85
2022-11-03T06:26:00.549Z,5.68
2022-11-03T06:29:22.577Z,4.57
2022-11-03T06:32:24.838Z,6.05
2022-11-03T06:35:41.550Z,7.27
2022-11-03T06:38:57.626Z,5.68
2022-11-03T06:42:14.753Z,6.18
2022-11-03T06:45:28.603Z,6.62
2022-11-03T06:48:50.569Z,5.30
2022-11-03T06:51:52.336Z,4.77
2022-11-03T06:55:22.734Z,4.78
2022-11-03T06:58:30.734Z,6.82
2022-11-03T07:01:45.715Z,6.00
2022-11-03T07:08:41.617Z,6.83
2022-11-03T07:11:54.932Z,6.90
2022-11-03T07:18:32.613Z,7.45
2022-11-03T07:21:46.380Z,7.37
2022-11-03T07:24:58.650Z,8.60
2022-11-03T07:28:16.616Z,7.82
2022-11-03T07:31:28.679Z,9.27
2022-11-03T07:34:37.314Z,8.90
2022-11-03T07:37:53.623Z,8.70
2022-11-03T07:41:10.627Z,8.93
2022-11-03T07:44:18.261Z,9.95
2022-11-03T07:47:34.620Z,8.93
2022-11-03T07:50:59.642Z,9.60
2022-11-03T07:54:22.649Z,10.38
2022-11-03T07:57:40.846Z,11.00
2022-11-03T08:00:49.667Z,10.50
2022-11-03T08:04:10.631Z,11.12
2022-11-03T08:07:18.606Z,11.10
2022-11-03T08:10:33.630Z,10.10
2022-11-03T08:13:42.154Z,13.13
2022-11-03T08:16:56.630Z,11.20
2022-11-03T08:20:04.657Z,12.63
2022-11-03T08:23:25.776Z,12.95
2022-11-03T08:26:35.718Z,10.70
2022-11-03T08:29:44.627Z,12.63
2022-11-03T08:32:52.676Z,12.98
2022-11-03T08:36:02.598Z,14.50
2022-11-03T08:39:17.642Z,12.68
2022-11-03T08:42:19.461Z,11.00
2022-11-03T08:45:35.691Z,12.87
2022-11-03T08:48:50.621Z,11.65
2022-11-03T08:51:59.246Z,12.82
2022-11-03T08:55:07.650Z,12.93
2022-11-03T08:58:16.525Z,12.75
2022-11-03T09:01:25.764Z,12.87
2022-11-03T09:04:34.294Z,13.15
2022-11-03T09:11:11.335Z,12.60
2022-11-03T09:14:19.686Z,12.95
2022-11-03T09:17:34.714Z,16.43
2022-11-03T09:20:49.652Z,14.07
2022-11-03T09:23:57.759Z,13.40
2022-11-03T09:27:12.696Z,13.75
2022-11-03T09:30:20.747Z,13.43
2022-11-03T09:33:35.725Z,12.73
2022-11-03T09:36:43.642Z,20.27
2022-11-03T09:39:52.302Z,14.63
2022-11-03T09:43:00.671Z,14.90
2022-11-03T09:46:10.063Z,13.65
2022-11-03T09:49:21.687Z,14.07
2022-11-03T09:52:38.770Z,13.75
2022-11-03T09:55:40.574Z,13.25
2022-11-03T09:58:55.750Z,13.48
2022-11-03T10:02:03.852Z,15.50
2022-11-03T10:05:22.855Z,23.07
2022-11-03T10:08:34.774Z,16.12
2022-11-03T10:11:52.766Z,15.18
2022-11-03T10:15:01.457Z,18.70
2022-11-03T10:18:10.783Z,19.83
2022-11-03T10:21:31.758Z,16.97
2022-11-03T10:24:39.738Z,14.60
2022-11-03T10:27:48.453Z,14.60
2022-11-03T10:31:16.009Z,16.37
2022-11-03T10:34:34.893Z,14.18
2022-11-03T10:37:43.852Z,13.07
2022-11-03T10:40:52.303Z,14.45
2022-11-03T10:44:24.692Z,15.27
2022-11-03T10:47:46.763Z,13.18
2022-11-03T10:50:55.459Z,14.48
2022-11-03T10:54:03.736Z,13.80
2022-11-03T10:57:12.667Z,12.75
2022-11-03T11:00:23.764Z,15.43
2022-11-03T11:03:39.771Z,13.73
2022-11-03T11:06:49.298Z,15.57
2022-11-03T11:09:57.737Z,13.43
2022-11-03T11:13:26.817Z,13.93
2022-11-03T11:16:54.756Z,14.02
2022-11-03T11:20:33.307Z,14.32
2022-11-03T11:23:53.030Z,14.20
2022-11-03T11:27:07.758Z,15.63
2022-11-03T11:30:46.842Z,27.10
2022-11-03T11:34:31.759Z,20.20
2022-11-03T11:37:42.742Z,14.85
2022-11-03T11:40:51.379Z,15.27
2022-11-03T11:43:59.733Z,13.77
2022-11-03T11:47:34.807Z,13.38
2022-11-03T11:50:43.867Z,15.18
2022-11-03T11:54:17.124Z,14.63
2022-11-03T11:57:22.865Z,14.35
2022-11-03T12:00:44.073Z,13.40
2022-11-03T12:03:54.891Z,14.75
2022-11-03T12:07:19.848Z,16.05
2022-11-03T12:10:30.761Z,16.33
2022-11-03T12:13:57.783Z,18.25
2022-11-03T12:17:33.031Z,19.13
2022-11-03T12:20:54.793Z,15.57
2022-11-03T12:23:57.073Z,15.98
2022-11-03T12:27:26.745Z,16.30
2022-11-03T12:30:39.817Z,15.93
2022-11-03T12:33:54.874Z,19.73
2022-11-03T12:37:04.752Z,17.30
2022-11-03T12:40:20.840Z,20.27
2022-11-03T12:43:29.469Z,18.00
2022-11-03T12:46:37.830Z,18.15
2022-11-03T12:49:59.794Z,18.47
2022-11-03T12:53:08.239Z,15.32
2022-11-03T12:56:18.360Z,16.62
2022-11-03T12:59:32.789Z,18.02
2022-11-03T13:02:41.559Z,16.08
2022-11-03T13:05:49.847Z,15.50
2022-11-03T13:08:58.392Z,16.37
2022-11-03T13:12:06.780Z,17.20
2022-11-03T13:15:22.840Z,17.15
2022-11-03T13:18:34.787Z,19.17
2022-11-03T13:21:49.843Z,23.67
2022-11-03T13:24:55.835Z,19.55
2022-11-03T13:28:11.837Z,17.45
2022-11-03T13:31:13.670Z,19.27
2022-11-03T13:34:31.766Z,19.08
2022-11-03T13:37:33.538Z,15.50
2022-11-03T13:40:57.089Z,15.38
2022-11-03T13:43:59.759Z,15.90
2022-11-03T13:47:15.060Z,14.05
2022-11-03T13:50:24.281Z,15.20
2022-11-03T14:00:36.758Z,16.25
2022-11-03T14:07:19.853Z,14.50
2022-11-03T14:10:28.851Z,14.23
2022-11-03T14:13:44.094Z,14.25
2022-11-03T14:16:46.026Z,14.02
2022-11-03T14:20:04.572Z,14.15
2022-11-03T14:23:07.272Z,14.87
2022-11-03T14:26:38.656Z,13.80
2022-11-03T14:29:44.541Z,18.58
2022-11-03T14:32:59.790Z,13.80
2022-11-03T14:36:08.733Z,16.12
2022-11-03T14:39:17.854Z,13.52
2022-11-03T14:42:26.796Z,20.50
2022-11-03T14:45:42.956Z,14.95
2022-11-03T14:48:59.125Z,18.08
2022-11-03T14:52:14.873Z,15.35
2022-11-03T14:55:24.197Z,15.07
2022-11-03T14:58:38.923Z,16.50
2022-11-03T15:01:49.019Z,16.55
2022-11-03T15:05:03.890Z,17.00
2022-11-03T15:08:06.071Z,17.23
2022-11-03T15:11:20.885Z,17.20
2022-11-03T15:14:28.877Z,15.77
2022-11-03T15:17:43.924Z,15.13
2022-11-03T15:20:45.988Z,14.35
2022-11-03T15:27:22.767Z,14.70
2022-11-03T15:30:38.864Z,14.90
2022-11-03T15:33:46.869Z,15.20
2022-11-03T15:36:55.483Z,15.27
2022-11-03T15:40:03.999Z,15.85
2022-11-03T15:43:12.510Z,13.20
2022-11-03T15:46:22.897Z,14.00
2022-11-03T15:49:38.218Z,14.18
2022-11-03T15:52:46.882Z,12.85
2022-11-03T15:56:01.918Z,15.85
2022-11-03T15:59:09.929Z,14.52
2022-11-03T16:02:40.992Z,14.13
2022-11-03T16:05:50.656Z,15.20
2022-11-03T16:08:58.983Z,15.23
2022-11-03T16:12:07.996Z,15.13
2022-11-03T16:15:22.912Z,14.52
2022-11-03T16:18:25.249Z,14.73
2022-11-03T16:21:39.992Z,15.55
2022-11-03T16:24:42.434Z,15.63
2022-11-03T16:27:57.999Z,23.77
2022-11-03T16:31:06.925Z,16.48
2022-11-03T16:34:22.982Z,16.03
2022-11-03T16:37:32.104Z,15.38
2022-11-03T16:40:42.370Z,16.55
2022-11-03T16:43:50.844Z,17.25
2022-11-03T16:47:13.901Z,16.47
2022-11-03T16:50:28.927Z,17.87
2022-11-03T16:53:37.597Z,19.13
2022-11-03T16:56:49.414Z,17.43
2022-11-03T17:00:00.766Z,17.45
2022-11-03T17:03:09.264Z,16.62
2022-11-03T17:06:24.929Z,16.60
2022-11-03T17:09:33.909Z,16.67
2022-11-03T17:12:48.937Z,18.57
2022-11-03T17:15:52.903Z,15.90
2022-11-03T17:19:07.910Z,16.98
2022-11-03T17:22:10.059Z,15.80
2022-11-03T17:25:24.875Z,16.33
2022-11-03T17:28:32.908Z,17.67
2022-11-03T17:31:47.894Z,18.58
2022-11-03T17:34:53.706Z,20.15
2022-11-03T17:38:12.989Z,17.83
2022-11-03T17:41:21.945Z,18.33
2022-11-03T17:44:31.753Z,19.37
2022-11-03T17:47:39.929Z,19.85
2022-11-03T17:50:56.399Z,18.48
2022-11-03T17:54:12.889Z,20.05
2022-11-03T17:57:23.115Z,20.30
2022-11-03T18:00:32.985Z,19.53
2022-11-03T18:03:50.962Z,19.42
2022-11-03T18:06:53.377Z,18.60
2022-11-03T18:10:07.921Z,19.35
2022-11-03T18:13:23.937Z,19.03
2022-11-03T18:16:38.954Z,20.30
2022-11-03T18:19:47.922Z,19.50
2022-11-03T18:23:17.953Z,21.35
2022-11-03T18:26:28.980Z,18.85
2022-11-03T18:29:37.786Z,17.93
2022-11-03T18:32:53.951Z,18.30
2022-11-03T18:36:03.979Z,18.85
2022-11-03T18:39:27.956Z,18.00
2022-11-03T18:42:37.146Z,18.37
2022-11-03T18:45:45.957Z,20.33
2022-11-03T18:49:01.995Z,18.23
2022-11-03T18:52:14.087Z,17.42
2022-11-03T18:55:29.062Z,18.37
2022-11-03T18:58:33.517Z,19.17
2022-11-03T19:01:48.083Z,19.50
2022-11-03T19:05:02.989Z,18.90
2022-11-03T19:08:05.798Z,18.08
2022-11-03T19:11:27.691Z,18.12
2022-11-03T19:14:33.007Z,18.60
2022-11-03T19:17:47.970Z,18.57
2022-11-03T19:20:56.978Z,18.97
2022-11-03T19:24:06.117Z,18.23
2022-11-03T19:27:27.004Z,19.20
2022-11-03T19:30:29.347Z,18.02
2022-11-03T19:33:45.943Z,18.90
2022-11-03T19:36:50.935Z,19.23
2022-11-03T19:40:06.954Z,17.80
2022-11-03T19:43:16.039Z,17.40
2022-11-03T19:46:32.016Z,17.87
2022-11-03T19:49:53.947Z,16.90
2022-11-03T19:53:12.968Z,17.93
2022-11-03T19:56:27.961Z,18.05
2022-11-03T19:59:30.041Z,19.83
2022-11-03T20:02:45.174Z,18.37
2022-11-03T20:05:50.488Z,18.47
2022-11-03T20:09:04.979Z,17.33
2022-11-03T20:12:13.938Z,18.85
2022-11-03T20:15:22.906Z,18.02
2022-11-03T20:18:31.967Z,17.45
2022-11-03T20:21:41.401Z,19.40
2022-11-03T20:24:53.974Z,17.90
2022-11-03T20:28:22.067Z,17.77
2022-11-03T20:31:37.005Z,17.15
2022-11-03T20:34:46.094Z,16.48
2022-11-03T20:37:57.204Z,17.93
2022-11-03T20:41:12.854Z,15.30
2022-11-03T20:44:29.124Z,16.08
2022-11-03T20:47:48.181Z,14.18
2022-11-03T20:50:57.266Z,17.02
2022-11-03T20:54:22.016Z,15.77
2022-11-03T20:57:30.846Z,16.33
2022-11-03T21:00:46.137Z,16.52
2022-11-03T21:04:01.017Z,14.82
2022-11-03T21:07:10.053Z,14.93
2022-11-03T21:10:26.009Z,13.80
2022-11-03T21:13:35.994Z,14.77
2022-11-03T21:16:51.023Z,14.50
2022-11-03T21:19:53.037Z,14.70
2022-11-03T21:23:08.300Z,15.43
2022-11-03T21:26:16.679Z,13.87
2022-11-03T21:29:53.495Z,14.50
2022-11-03T21:32:53.626Z,14.15
2022-11-03T21:36:02.032Z,13.65
2022-11-03T21:39:17.057Z,14.57
2022-11-03T21:42:25.562Z,14.33
2022-11-03T21:45:34.027Z,13.77
2022-11-03T21:48:49.013Z,14.68
2022-11-03T21:52:11.022Z,15.25
2022-11-03T21:55:26.052Z,15.25
2022-11-03T21:58:27.833Z,13.87
2022-11-03T22:01:43.276Z,15.07
2022-11-03T22:04:58.061Z,15.32
2022-11-03T22:07:59.768Z,13.98
2022-11-03T22:11:15.069Z,14.80
2022-11-03T22:14:23.034Z,15.17
2022-11-03T22:17:31.617Z,14.70
2022-11-03T22:20:40.070Z,13.70
2022-11-03T22:23:48.589Z,14.35
2022-11-03T22:26:57.047Z,14.02
2022-11-03T22:30:06.603Z,13.00
2022-11-03T22:33:15.017Z,13.93
2022-11-03T22:36:23.708Z,15.52
2022-11-03T22:39:32.057Z,13.80
2022-11-03T22:42:41.010Z,13.27
2022-11-03T22:45:49.057Z,14.27
2022-11-03T22:49:04.046Z,13.10
2022-11-03T22:52:12.065Z,13.55
2022-11-03T22:55:20.567Z,13.32
2022-11-03T22:58:30.573Z,12.68
2022-11-03T23:01:39.876Z,12.80
2022-11-03T23:04:48.052Z,13.23
2022-11-03T23:07:56.650Z,13.80
2022-11-03T23:11:18.145Z,13.40
2022-11-03T23:14:33.054Z,13.23
2022-11-03T23:17:41.053Z,13.33
2022-11-03T23:20:49.615Z,13.97
2022-11-03T23:23:58.110Z,13.05
2022-11-03T23:27:07.453Z,13.27
2022-11-03T23:30:16.052Z,12.77
2022-11-03T23:33:31.097Z,12.77
2022-11-03T23:36:33.119Z,13.80
2022-11-03T23:39:48.091Z,13.95
2022-11-03T23:42:49.829Z,13.25
2022-11-03T23:46:04.104Z,13.20
2022-11-03T23:49:06.382Z,12.87
2022-11-03T23:52:28.115Z,13.20
2022-11-03T23:55:36.090Z,12.82
2022-11-03T23:58:48.571Z,13.23
